Time;durP1;ratioP1;P1;durP2;ratioP2;P2;SDS_P1;SDS_P2;PMS_P1;PMS_P2;Temp;Humidity;BMP_temperature;BMP_pressure;BME280_temperature;BME280_humidity;BME280_pressure;Samples;Min_cycle;Max_cycle;Signal;HPM_P1;HPM_P2
2023/10/19 00:01:47;;;;;;;0.28;0.28;;;7.50;99.90;;;;;;5016612;28;20089;-78
2023/10/19 00:04:14;;;;;;;1.38;0.40;;;7.50;99.90;;;;;;5017773;28;20105;-78
2023/10/19 00:06:40;;;;;;;1.35;1.25;;;7.50;99.90;;;;;;5017559;28;20056;-78
2023/10/19 00:09:11;;;;;;;4.22;1.23;;;7.50;99.90;;;;;;5018165;28;20499;-79
2023/10/19 00:11:40;;;;;;;1.58;1.35;;;7.50;99.90;;;;;;5018341;28;20065;-78
2023/10/19 00:14:15;;;;;;;2.78;1.63;;;7.50;99.90;;;;;;5017453;28;20077;-78
2023/10/19 00:16:44;;;;;;;2.28;1.90;;;7.50;1.00;;;;;;5018356;28;20048;-78
2023/10/19 00:19:11;;;;;;;0.60;0.50;;;7.50;1.00;;;;;;5016947;28;20076;-78
2023/10/19 00:21:50;;;;;;;0.40;0.40;;;7.40;1.00;;;;;;5016903;28;20404;-78
2023/10/19 00:24:18;;;;;;;0.88;0.88;;;7.40;93.80;;;;;;5016704;28;20164;-78
2023/10/19 00:26:44;;;;;;;1.15;0.80;;;7.50;99.90;;;;;;5016093;28;20034;-80
2023/10/19 00:31:56;;;;;;;3.13;1.42;;;7.50;99.90;;;;;;5002253;28;20404;-78
2023/10/19 00:34:22;;;;;;;1.83;1.73;;;7.50;99.90;;;;;;5015641;28;20108;-78
2023/10/19 00:36:50;;;;;;;5.70;3.05;;;7.50;99.90;;;;;;5015768;28;20050;-78
2023/10/19 00:39:20;;;;;;;1.50;1.40;;;7.50;99.90;;;;;;5015930;28;20048;-78
2023/10/19 00:41:47;;;;;;;5.80;3.35;;;7.50;99.90;;;;;;5007215;28;20044;-78
2023/10/19 00:44:22;;;;;;;2.40;1.05;;;7.50;99.90;;;;;;5015235;28;20037;-78
2023/10/19 00:46:55;;;;;;;1.58;1.13;;;7.50;99.90;;;;;;5015244;28;20050;-79
2023/10/19 00:49:23;;;;;;;0.63;0.63;;;7.50;99.90;;;;;;5015366;28;20595;-78
2023/10/19 00:54:33;;;;;;;2.28;1.75;;;7.50;99.90;;;;;;5015285;28;20045;-77
2023/10/19 00:57:12;;;;;;;1.80;1.65;;;7.50;99.90;;;;;;5014866;28;20407;-78
2023/10/19 01:00:11;;;;;;;3.17;2.42;;;7.50;99.90;;;;;;5014781;28;20052;-78
2023/10/19 01:02:43;;;;;;;2.75;1.52;;;7.50;99.90;;;;;;5010723;28;20049;-78
2023/10/19 01:05:12;;;;;;;0.73;0.73;;;7.50;99.90;;;;;;4998108;28;20092;-77
2023/10/19 01:07:39;;;;;;;0.70;0.68;;;7.60;99.90;;;;;;5014777;28;20113;-78
2023/10/19 01:10:21;;;;;;;1.52;1.42;;;7.60;99.90;;;;;;5014626;28;20061;-78
2023/10/19 01:12:47;;;;;;;2.33;1.13;;;7.60;99.90;;;;;;5014790;28;20050;-77
2023/10/19 01:17:56;;;;;;;5.50;1.75;;;7.60;99.90;;;;;;5014952;28;20052;-77
2023/10/19 01:28:26;;;;;;;1.15;1.05;;;7.60;99.90;;;;;;5015201;28;20053;-78
2023/10/19 01:30:51;;;;;;;0.20;0.20;;;7.60;99.90;;;;;;5015359;28;20157;-78
2023/10/19 01:33:23;;;;;;;1.90;1.80;;;7.60;99.90;;;;;;5015100;28;20061;-78
2023/10/19 01:38:33;;;;;;;2.38;2.15;;;7.60;99.90;;;;;;5014844;28;20053;-79
2023/10/19 01:41:07;;;;;;;1.25;1.15;;;7.60;99.90;;;;;;5015101;28;20050;-77
2023/10/19 01:43:33;;;;;;;1.60;1.38;;;7.60;99.90;;;;;;5014733;28;20461;-78
2023/10/19 01:46:11;;;;;;;2.17;1.65;;;7.60;99.90;;;;;;5015071;28;20053;-78
2023/10/19 01:48:38;;;;;;;1.25;1.08;;;7.60;99.90;;;;;;5015059;28;20104;-78
2023/10/19 01:51:05;;;;;;;1.35;1.17;;;7.50;99.90;;;;;;5014905;28;20049;-78
2023/10/19 01:53:33;;;;;;;2.47;1.13;;;7.60;99.90;;;;;;5014556;28;20404;-78
2023/10/19 01:55:58;;;;;;;2.70;1.33;;;7.60;99.90;;;;;;5005043;28;20067;-78
2023/10/19 01:58:25;;;;;;;1.08;0.68;;;7.60;99.90;;;;;;5014152;28;20415;-78
2023/10/19 02:01:36;;;;;;;0.35;0.35;;;7.60;99.90;;;;;;5014557;28;20044;-78
2023/10/19 02:03:42;;;;;;;11.40;0.47;;;7.60;99.90;;;;;;5016497;28;20061;-78
2023/10/19 02:06:19;;;;;;;1.48;1.02;;;7.60;99.90;;;;;;5014727;28;20052;-78
2023/10/19 02:08:59;;;;;;;0.65;0.65;;;7.60;99.90;;;;;;5014685;28;20334;-78
2023/10/19 02:11:26;;;;;;;5.30;2.65;;;7.60;99.90;;;;;;5008099;28;20049;-78
2023/10/19 02:13:55;;;;;;;1.50;0.75;;;7.60;99.90;;;;;;5015123;28;20050;-78
2023/10/19 02:16:22;;;;;;;2.30;1.67;;;8.80;99.90;;;;;;5007253;28;20038;-77
2023/10/19 02:18:49;;;;;;;1.55;1.40;;;7.60;99.90;;;;;;5018244;28;20041;-78
2023/10/19 02:21:15;;;;;;;4.40;2.67;;;7.60;99.90;;;;;;5017922;28;20127;-78
2023/10/19 02:23:41;;;;;;;1.35;1.27;;;7.60;99.90;;;;;;5018267;28;20042;-79
2023/10/19 02:26:08;;;;;;;3.38;1.92;;;7.60;99.90;;;;;;5018097;28;20103;-79
2023/10/19 02:28:40;;;;;;;0.88;0.70;;;7.60;99.90;;;;;;5017499;28;20045;-77
2023/10/19 02:31:16;;;;;;;2.58;2.22;;;7.60;99.90;;;;;;5016351;28;20038;-77
2023/10/19 02:33:51;;;;;;;2.35;1.70;;;7.60;99.90;;;;;;5010647;28;20080;-77
2023/10/19 02:36:19;;;;;;;0.65;0.65;;;7.60;99.90;;;;;;5017624;28;20080;-77
2023/10/19 02:38:48;;;;;;;0.77;0.77;;;7.60;99.90;;;;;;5017598;28;20395;-78
2023/10/19 02:41:15;;;;;;;7.28;2.22;;;7.60;99.90;;;;;;5017988;28;20041;-77
2023/10/19 02:43:45;;;;;;;4.30;3.90;;;7.70;99.90;;;;;;5017184;28;20161;-78
2023/10/19 02:46:13;;;;;;;0.50;0.50;;;7.60;99.90;;;;;;5017663;28;20034;-77
2023/10/19 02:48:44;;;;;;;0.98;0.90;;;7.70;99.90;;;;;;5016631;28;20050;-78
2023/10/19 02:51:13;;;;;;;2.72;1.55;;;7.60;99.90;;;;;;5018337;28;20492;-79
2023/10/19 02:53:42;;;;;;;1.15;1.05;;;7.60;99.90;;;;;;5017645;28;20049;-78
2023/10/19 02:56:19;;;;;;;1.30;1.05;;;7.70;99.90;;;;;;5017706;28;20526;-78
2023/10/19 02:58:49;;;;;;;1.77;1.48;;;7.70;99.90;;;;;;5017788;28;20037;-79
2023/10/19 03:01:22;;;;;;;0.65;0.65;;;7.70;99.90;;;;;;5017662;28;20054;-78
2023/10/19 03:03:50;;;;;;;10.10;1.85;;;7.70;99.90;;;;;;5017133;28;20046;-77
2023/10/19 03:06:20;;;;;;;1.27;1.08;;;7.70;99.90;;;;;;5017930;28;20073;-77
2023/10/19 03:08:46;;;;;;;1.55;1.35;;;7.70;99.90;;;;;;5016927;28;20084;-78
2023/10/19 03:11:13;;;;;;;1.70;1.60;;;7.70;99.90;;;;;;5009335;28;20050;-77
2023/10/19 03:13:40;;;;;;;2.22;2.03;;;7.70;99.90;;;;;;5017088;28;20423;-79
2023/10/19 03:16:09;;;;;;;2.67;1.42;;;7.70;99.90;;;;;;5018019;28;20090;-78
2023/10/19 03:18:35;;;;;;;2.53;1.50;;;7.70;99.90;;;;;;5017401;28;20049;-78
2023/10/19 03:21:04;;;;;;;0.77;0.75;;;7.70;99.90;;;;;;5017280;28;20050;-78
2023/10/19 03:23:34;;;;;;;0.10;0.10;;;7.80;99.90;;;;;;5016119;28;20484;-77
2023/10/19 03:26:22;;;;;;;0.30;0.30;;;7.80;99.90;;;;;;5016585;28;20069;-77
2023/10/19 03:28:54;;;;;;;2.08;0.88;;;7.80;99.90;;;;;;5008872;28;20042;-78
2023/10/19 03:31:21;;;;;;;0.28;0.28;;;7.80;99.90;;;;;;5014991;28;20054;-78
2023/10/19 03:33:55;;;;;;;0.47;0.47;;;7.80;99.90;;;;;;5015990;28;20056;-78
2023/10/19 03:36:23;;;;;;;1.33;1.00;;;8.90;99.90;;;;;;5017900;28;20124;-78
2023/10/19 03:38:51;;;;;;;1.98;1.23;;;7.80;99.90;;;;;;5017918;28;20049;-78
2023/10/19 03:41:21;;;;;;;4.45;2.60;;;7.80;99.90;;;;;;5018236;28;20088;-78
2023/10/19 03:43:48;;;;;;;1.15;1.08;;;7.80;99.90;;;;;;5018587;28;20034;-79
2023/10/19 03:46:37;;;;;;;3.53;2.15;;;7.90;99.90;;;;;;5019579;28;20484;-79
2023/10/19 03:49:10;;;;;;;1.17;0.70;;;7.90;99.90;;;;;;5000718;28;20133;-78
2023/10/19 03:54:25;;;;;;;0.52;0.50;;;7.90;99.90;;;;;;5017332;28;20008;-78
2023/10/19 03:56:56;;;;;;;0.32;0.32;;;7.90;99.90;;;;;;5017054;28;20050;-78
2023/10/19 03:59:22;;;;;;;0.80;0.57;;;7.90;99.90;;;;;;5017285;28;20467;-78
2023/10/19 04:01:48;;;;;;;1.10;1.05;;;7.90;99.90;;;;;;5016284;28;20053;-78
2023/10/19 04:04:13;;;;;;;4.47;2.05;;;7.90;99.90;;;;;;5016685;28;20041;-78
2023/10/19 04:06:40;;;;;;;0.70;0.70;;;7.90;99.90;;;;;;5016672;28;20049;-78
2023/10/19 04:09:06;;;;;;;0.70;0.55;;;7.90;99.90;;;;;;5016335;28;20475;-78
2023/10/19 04:11:34;;;;;;;4.63;1.50;;;7.90;99.90;;;;;;5016636;28;20077;-78
2023/10/19 04:14:03;;;;;;;0.80;0.73;;;7.90;99.90;;;;;;5017782;28;20407;-79
2023/10/19 04:16:31;;;;;;;0.55;0.55;;;7.90;99.90;;;;;;5017800;28;20050;-78
2023/10/19 04:18:58;;;;;;;2.45;0.73;;;7.90;99.90;;;;;;5017193;28;20101;-79
2023/10/19 04:21:23;;;;;;;0.88;0.55;;;8.00;99.90;;;;;;5019725;28;20060;-79
2023/10/19 04:23:49;;;;;;;0.25;0.25;;;8.60;99.90;;;;;;5019860;28;20077;-79
2023/10/19 04:26:18;;;;;;;0.77;0.77;;;8.00;99.90;;;;;;5018706;28;20038;-79
2023/10/19 04:28:50;;;;;;;3.13;1.42;;;8.50;99.90;;;;;;5020555;28;20045;-79
2023/10/19 04:31:17;;;;;;;0.73;0.55;;;8.00;99.90;;;;;;5022493;28;20038;-79
2023/10/19 04:33:45;;;;;;;2.33;1.88;;;8.00;99.90;;;;;;5018939;28;20048;-78
2023/10/19 04:36:12;;;;;;;1.65;0.93;;;8.00;99.90;;;;;;5019879;28;20069;-79
2023/10/19 04:38:38;;;;;;;3.10;1.17;;;8.00;99.90;;;;;;5018950;28;20068;-79
2023/10/19 04:41:07;;;;;;;3.88;0.90;;;8.00;99.90;;;;;;5018327;28;20038;-79
2023/10/19 04:43:33;;;;;;;3.35;1.65;;;8.00;99.90;;;;;;5019440;28;20403;-78
2023/10/19 04:45:59;;;;;;;1.00;0.95;;;8.00;99.90;;;;;;5018530;28;20034;-79
2023/10/19 04:48:25;;;;;;;0.17;0.17;;;8.00;99.90;;;;;;5018796;28;20042;-79
2023/10/19 04:50:51;;;;;;;0.17;0.17;;;8.00;99.90;;;;;;5019599;28;20503;-79
2023/10/19 04:53:16;;;;;;;3.70;1.30;;;8.00;99.90;;;;;;5020274;28;20042;-79
2023/10/19 04:55:42;;;;;;;0.75;0.73;;;8.00;99.90;;;;;;5017810;28;20052;-78
2023/10/19 04:58:07;;;;;;;1.17;1.00;;;8.00;99.90;;;;;;5018486;28;20046;-79
2023/10/19 05:00:33;;;;;;;0.47;0.47;;;8.00;99.90;;;;;;5017871;28;20128;-79
2023/10/19 05:02:58;;;;;;;1.25;1.15;;;8.00;99.90;;;;;;5018726;28;20037;-78
2023/10/19 05:05:24;;;;;;;1.13;1.05;;;8.00;99.90;;;;;;5017861;28;20448;-78
2023/10/19 05:07:50;;;;;;;0.45;0.45;;;8.00;99.90;;;;;;5018437;28;20431;-79
2023/10/19 05:10:15;;;;;;;0.40;0.40;;;8.00;99.90;;;;;;5034492;28;20046;-79
2023/10/19 05:12:41;;;;;;;0.63;0.60;;;8.00;99.90;;;;;;5019750;28;20398;-79
2023/10/19 05:15:08;;;;;;;0.03;0.03;;;8.00;99.90;;;;;;5019509;28;20094;-79
2023/10/19 05:17:33;;;;;;;0.30;0.30;;;8.00;99.90;;;;;;5020196;28;20073;-79
2023/10/19 05:19:59;;;;;;;0.63;0.63;;;8.00;99.90;;;;;;5020058;28;20053;-79
2023/10/19 05:22:29;;;;;;;0.20;0.20;;;8.00;99.90;;;;;;5020423;28;20045;-79
2023/10/19 05:24:54;;;;;;;0.10;0.10;;;8.00;99.90;;;;;;5019841;28;20399;-79
2023/10/19 05:27:20;;;;;;;0.63;0.63;;;8.00;99.90;;;;;;5019002;28;20046;-79
2023/10/19 05:29:45;;;;;;;0.10;0.10;;;8.00;99.90;;;;;;5019675;28;20061;-79
2023/10/19 05:32:11;;;;;;;0.47;0.47;;;8.00;99.90;;;;;;5019903;28;20106;-79
2023/10/19 05:34:37;;;;;;;0.28;0.28;;;8.00;99.90;;;;;;5018563;28;20104;-79
2023/10/19 05:37:05;;;;;;;1.75;1.10;;;8.00;99.90;;;;;;5018376;28;20073;-79
2023/10/19 05:39:31;;;;;;;0.22;0.17;;;8.50;99.90;;;;;;5019628;28;20049;-79
2023/10/19 05:42:00;;;;;;;2.50;1.30;;;8.10;99.90;;;;;;5017232;28;20050;-79
2023/10/19 05:44:27;;;;;;;0.28;0.28;;;8.00;99.90;;;;;;5017300;28;20050;-79
2023/10/19 05:46:52;;;;;;;0.17;0.13;;;8.00;99.90;;;;;;5018511;28;20095;-78
2023/10/19 05:49:18;;;;;;;0.35;0.30;;;8.00;99.90;;;;;;5018073;28;20488;-78
2023/10/19 05:51:46;;;;;;;0.30;0.30;;;8.00;99.90;;;;;;5017803;28;20030;-79
2023/10/19 05:54:12;;;;;;;0.52;0.47;;;8.00;99.90;;;;;;5021322;28;20033;-79
2023/10/19 05:56:38;;;;;;;0.52;0.30;;;8.00;99.90;;;;;;5021216;28;20084;-79
2023/10/19 05:59:05;;;;;;;0.30;0.30;;;8.00;99.90;;;;;;5020852;28;20504;-80
2023/10/19 06:01:31;;;;;;;1.48;0.40;;;8.00;99.90;;;;;;5021190;28;20081;-78
2023/10/19 06:03:56;;;;;;;1.35;1.17;;;8.00;99.90;;;;;;5021946;28;20033;-80
2023/10/19 06:06:23;;;;;;;1.70;0.85;;;8.00;99.90;;;;;;5019909;28;20120;-78
2023/10/19 06:08:53;;;;;;;0.30;0.30;;;8.00;99.90;;;;;;5019835;28;20038;-78
2023/10/19 06:11:19;;;;;;;0.30;0.30;;;8.00;99.90;;;;;;5034897;28;20415;-79
2023/10/19 06:13:45;;;;;;;0.20;0.10;;;8.00;99.90;;;;;;5020511;28;20045;-78
2023/10/19 06:16:11;;;;;;;0.55;0.55;;;8.00;99.90;;;;;;5020057;28;20049;-78
2023/10/19 06:18:37;;;;;;;0.03;0.03;;;8.00;99.90;;;;;;5019895;28;20414;-79
2023/10/19 06:21:03;;;;;;;0.50;0.50;;;8.10;99.90;;;;;;5019562;28;20125;-79
2023/10/19 06:23:31;;;;;;;1.08;0.70;;;8.10;99.90;;;;;;5019272;28;20133;-78
2023/10/19 06:25:57;;;;;;;0.10;0.10;;;8.00;99.90;;;;;;5019024;28;20046;-78
2023/10/19 06:28:22;;;;;;;1.20;0.35;;;8.10;99.90;;;;;;5019337;28;20495;-78
2023/10/19 06:30:48;;;;;;;0.30;0.30;;;8.10;99.90;;;;;;5018336;28;20041;-78
2023/10/19 06:33:14;;;;;;;0.10;0.10;;;8.10;99.90;;;;;;5018683;28;20046;-79
2023/10/19 06:35:40;;;;;;;0.90;0.80;;;8.10;99.90;;;;;;5021413;28;20046;-79
2023/10/19 06:38:08;;;;;;;0.45;0.45;;;8.10;99.90;;;;;;5019101;28;20045;-79
2023/10/19 06:40:37;;;;;;;0.00;0.00;;;8.10;99.90;;;;;;5018630;28;20500;-79
2023/10/19 06:43:05;;;;;;;0.17;0.17;;;8.10;99.90;;;;;;5017916;28;20088;-79
2023/10/19 06:45:30;;;;;;;0.15;0.08;;;8.10;99.90;;;;;;5010049;28;20049;-79
2023/10/19 06:47:58;;;;;;;0.32;0.32;;;8.10;99.90;;;;;;5017623;28;20132;-79
2023/10/19 06:50:24;;;;;;;0.03;0.03;;;8.10;99.90;;;;;;5018605;28;20096;-79
2023/10/19 06:52:49;;;;;;;0.00;0.00;;;8.10;99.90;;;;;;5017225;28;20046;-79
2023/10/19 06:55:19;;;;;;;0.70;0.52;;;8.10;99.90;;;;;;5018760;28;20053;-79
2023/10/19 06:57:47;;;;;;;0.50;0.47;;;8.10;99.90;;;;;;5017496;28;20058;-79
2023/10/19 07:00:21;;;;;;;0.17;0.17;;;8.20;99.90;;;;;;5018558;28;20405;-79
2023/10/19 07:02:48;;;;;;;0.28;0.28;;;8.20;99.90;;;;;;5016684;28;20038;-79
2023/10/19 07:05:18;;;;;;;0.45;0.40;;;8.20;99.90;;;;;;5019030;28;20572;-79
2023/10/19 07:07:44;;;;;;;0.00;0.00;;;8.20;99.90;;;;;;5019137;28;20042;-79
2023/10/19 07:10:12;;;;;;;0.00;0.00;;;8.20;99.90;;;;;;5019456;28;20046;-79
2023/10/19 07:12:41;;;;;;;0.20;0.20;;;8.20;99.90;;;;;;5019315;28;20046;-80
2023/10/19 07:15:09;;;;;;;0.00;0.00;;;8.20;99.90;;;;;;5018687;28;20477;-79
2023/10/19 07:17:37;;;;;;;0.00;0.00;;;8.30;99.90;;;;;;5019114;28;20403;-79
2023/10/19 07:20:07;;;;;;;1.98;0.45;;;8.30;99.90;;;;;;5018339;28;20038;-79
2023/10/19 07:22:34;;;;;;;0.00;0.00;;;8.20;99.90;;;;;;5019590;28;20034;-79
2023/10/19 07:25:00;;;;;;;0.52;0.47;;;8.30;99.90;;;;;;5016727;28;20046;-79
2023/10/19 07:27:28;;;;;;;0.00;0.00;;;8.30;99.90;;;;;;5017793;28;20049;-79
2023/10/19 07:29:53;;;;;;;0.60;0.38;;;8.30;99.90;;;;;;5016703;28;20133;-79
2023/10/19 07:32:19;;;;;;;0.10;0.00;;;8.30;99.90;;;;;;5016294;28;20081;-79
2023/10/19 07:34:45;;;;;;;0.00;0.00;;;8.30;99.90;;;;;;5014686;28;20042;-79
2023/10/19 07:37:15;;;;;;;0.13;0.10;;;8.30;99.90;;;;;;5015845;28;20108;-79
2023/10/19 07:39:47;;;;;;;0.30;0.30;;;8.30;99.90;;;;;;5015925;28;20050;-79
2023/10/19 07:42:14;;;;;;;0.00;0.00;;;8.30;99.90;;;;;;5014618;28;20034;-78
2023/10/19 07:44:40;;;;;;;0.00;0.00;;;8.30;99.90;;;;;;5014479;28;20515;-78
2023/10/19 07:47:09;;;;;;;0.05;0.05;;;8.30;99.90;;;;;;5013906;28;20041;-78
2023/10/19 07:49:40;;;;;;;0.10;0.10;;;8.30;99.90;;;;;;5013965;28;20096;-78
2023/10/19 07:52:06;;;;;;;0.13;0.13;;;8.30;99.90;;;;;;5013065;28;20065;-78
2023/10/19 07:54:35;;;;;;;0.20;0.20;;;8.30;99.90;;;;;;5013059;28;20045;-78
2023/10/19 07:57:07;;;;;;;0.00;0.00;;;8.30;99.90;;;;;;5010617;28;20404;-78
2023/10/19 07:59:33;;;;;;;0.60;0.60;;;8.30;99.90;;;;;;5011268;28;20050;-78
2023/10/19 08:02:04;;;;;;;0.00;0.00;;;8.40;99.90;;;;;;5011989;28;20518;-78
2023/10/19 08:04:30;;;;;;;0.00;0.00;;;8.40;99.90;;;;;;5012094;28;20534;-78
2023/10/19 08:06:57;;;;;;;0.00;0.00;;;8.40;99.90;;;;;;5012310;28;20085;-77
2023/10/19 08:09:23;;;;;;;0.03;0.03;;;8.40;99.90;;;;;;5005538;28;20038;-78
2023/10/19 08:11:55;;;;;;;0.03;0.03;;;8.40;99.90;;;;;;5010773;28;20072;-78
2023/10/19 08:14:24;;;;;;;0.10;0.10;;;8.40;99.90;;;;;;5011278;28;20095;-78
2023/10/19 08:16:50;;;;;;;0.10;0.10;;;8.40;99.90;;;;;;5009992;28;20054;-78
2023/10/19 08:19:16;;;;;;;0.13;0.13;;;8.30;99.90;;;;;;5009933;28;20050;-78
2023/10/19 08:21:42;;;;;;;0.03;0.03;;;8.30;99.90;;;;;;5009926;28;20050;-78
2023/10/19 08:24:13;;;;;;;0.63;0.40;;;8.40;99.90;;;;;;5011056;28;20053;-78
2023/10/19 08:26:41;;;;;;;0.82;0.20;;;8.40;99.90;;;;;;5010916;28;20795;-77
2023/10/19 08:29:12;;;;;;;0.00;0.00;;;8.40;99.90;;;;;;5009492;28;20151;-78
2023/10/19 08:31:39;;;;;;;0.00;0.00;;;8.40;99.90;;;;;;5011321;28;20042;-78
2023/10/19 08:34:05;;;;;;;0.03;0.03;;;8.40;99.90;;;;;;5010803;28;20041;-78
2023/10/19 08:36:31;;;;;;;0.38;0.30;;;8.40;99.90;;;;;;5011963;28;20053;-78
2023/10/19 08:38:56;;;;;;;0.13;0.13;;;8.40;99.90;;;;;;5010640;28;20044;-78
2023/10/19 08:41:23;;;;;;;1.20;0.65;;;8.40;99.90;;;;;;5010990;28;20507;-78
2023/10/19 08:43:50;;;;;;;0.00;0.00;;;8.50;99.90;;;;;;5009803;28;20076;-78
2023/10/19 08:46:16;;;;;;;0.00;0.00;;;8.50;99.90;;;;;;5011025;28;20056;-78
2023/10/19 08:48:41;;;;;;;0.10;0.10;;;8.50;99.90;;;;;;5011269;28;20041;-78
2023/10/19 08:51:10;;;;;;;0.38;0.32;;;8.50;99.90;;;;;;5010954;28;20044;-78
2023/10/19 08:53:40;;;;;;;0.63;0.28;;;8.50;99.90;;;;;;5010768;28;20057;-77
2023/10/19 08:56:07;;;;;;;0.10;0.10;;;8.60;99.90;;;;;;5009459;28;20058;-78
2023/10/19 08:58:34;;;;;;;0.75;0.40;;;8.60;99.90;;;;;;5009354;28;20512;-78
2023/10/19 09:01:06;;;;;;;2.13;1.33;;;8.60;99.90;;;;;;5010697;28;20038;-78
2023/10/19 09:03:32;;;;;;;0.05;0.05;;;8.60;99.90;;;;;;5010550;28;20116;-78
2023/10/19 09:06:01;;;;;;;1.88;0.52;;;8.60;99.90;;;;;;5010599;28;20586;-78
2023/10/19 09:08:38;;;;;;;0.00;0.00;;;8.60;99.90;;;;;;5009293;28;20049;-78
2023/10/19 09:11:09;;;;;;;0.20;0.13;;;8.70;99.90;;;;;;5011667;28;20411;-78
2023/10/19 09:13:49;;;;;;;1.20;0.40;;;8.70;99.90;;;;;;5011530;28;20049;-78
2023/10/19 09:16:20;;;;;;;0.20;0.15;;;8.70;99.90;;;;;;4996506;28;20049;-78
2023/10/19 09:18:47;;;;;;;1.08;0.55;;;8.70;99.90;;;;;;5010236;28;20037;-78
2023/10/19 09:21:25;;;;;;;0.28;0.17;;;8.80;99.90;;;;;;5009903;28;20042;-78
2023/10/19 09:23:57;;;;;;;0.20;0.17;;;8.80;99.90;;;;;;5010445;28;20038;-78
2023/10/19 09:26:24;;;;;;;0.47;0.47;;;8.80;99.90;;;;;;5011002;28;20431;-78
2023/10/19 09:28:53;;;;;;;0.10;0.10;;;8.80;99.90;;;;;;5010245;28;20045;-78
2023/10/19 09:31:21;;;;;;;0.03;0.03;;;8.70;99.90;;;;;;5002820;28;20137;-78
2023/10/19 09:33:48;;;;;;;0.20;0.20;;;8.80;99.90;;;;;;5010234;28;20053;-78
2023/10/19 09:36:15;;;;;;;0.08;0.08;;;8.80;99.90;;;;;;5011082;28;20050;-78
2023/10/19 09:38:48;;;;;;;0.28;0.25;;;8.80;99.90;;;;;;5010343;28;20041;-78
2023/10/19 09:41:15;;;;;;;0.28;0.20;;;8.80;99.90;;;;;;5010785;28;20054;-78
2023/10/19 09:43:49;;;;;;;0.82;0.50;;;8.80;99.90;;;;;;5010854;28;20053;-78
2023/10/19 09:46:26;;;;;;;0.40;0.35;;;8.80;99.90;;;;;;5008062;28;20057;-78
2023/10/19 09:48:52;;;;;;;0.00;0.00;;;8.90;99.90;;;;;;5009961;28;20046;-78
2023/10/19 09:51:19;;;;;;;0.15;0.15;;;9.00;99.90;;;;;;5010695;28;20042;-78
2023/10/19 09:54:14;;;;;;;0.00;0.00;;;9.00;99.90;;;;;;5010359;28;20034;-78
2023/10/19 09:56:46;;;;;;;0.25;0.25;;;9.00;99.90;;;;;;4997102;28;20054;-78
2023/10/19 09:59:37;;;;;;;0.22;0.22;;;9.00;99.90;;;;;;5008025;28;20042;-78
2023/10/19 10:02:05;;;;;;;0.30;0.20;;;9.00;99.90;;;;;;5002424;28;20529;-78
2023/10/19 10:04:32;;;;;;;0.15;0.13;;;9.10;99.90;;;;;;5009551;28;20453;-78
2023/10/19 10:06:59;;;;;;;0.20;0.20;;;9.10;99.90;;;;;;5008862;28;20125;-78
2023/10/19 10:09:26;;;;;;;0.25;0.25;;;9.10;99.90;;;;;;5010100;28;20058;-78
2023/10/19 10:11:52;;;;;;;0.40;0.28;;;9.20;99.90;;;;;;5010211;28;20039;-78
2023/10/19 10:14:28;;;;;;;0.20;0.20;;;9.20;99.90;;;;;;5008598;28;20050;-78
2023/10/19 10:17:04;;;;;;;0.93;0.47;;;9.20;99.90;;;;;;5009940;28;20100;-78
2023/10/19 10:19:30;;;;;;;;;;;9.20;99.90;;;;;;5010503;28;20056;-78
2023/10/19 10:22:14;;;;;;;0.20;0.20;;;9.20;99.90;;;;;;5008297;28;19922;-78
2023/10/19 10:24:41;;;;;;;0.00;0.00;;;9.20;99.90;;;;;;5009479;28;20050;-78
2023/10/19 10:27:07;;;;;;;0.10;0.10;;;9.30;99.90;;;;;;5009884;28;20434;-78
2023/10/19 10:29:32;;;;;;;0.20;0.20;;;9.30;99.90;;;;;;5010147;28;20133;-78
2023/10/19 10:32:01;;;;;;;0.75;0.73;;;9.20;99.90;;;;;;5009302;28;20050;-78
2023/10/19 10:34:33;;;;;;;0.63;0.55;;;9.30;99.90;;;;;;5010323;28;20046;-78
2023/10/19 10:37:10;;;;;;;2.40;1.98;;;9.20;99.90;;;;;;5009857;28;20054;-78
2023/10/19 10:39:37;;;;;;;0.30;0.30;;;9.30;99.90;;;;;;5013393;28;20684;-78
2023/10/19 10:42:05;;;;;;;1.10;1.00;;;9.40;99.90;;;;;;5013235;28;20152;-78
2023/10/19 10:44:41;;;;;;;0.20;0.20;;;9.40;99.90;;;;;;5005142;28;20052;-78
2023/10/19 10:47:10;;;;;;;0.25;0.22;;;9.50;99.90;;;;;;5012965;28;20541;-78
2023/10/19 10:49:55;;;;;;;12.40;1.17;;;9.40;99.90;;;;;;5004141;28;20053;-78
2023/10/19 10:52:29;;;;;;;0.10;0.05;;;9.40;99.90;;;;;;5012701;28;20073;-78
2023/10/19 10:54:55;;;;;;;0.20;0.20;;;9.50;99.90;;;;;;5013229;28;20382;-78
2023/10/19 10:57:21;;;;;;;0.38;0.20;;;9.50;99.90;;;;;;5013087;28;20188;-78
2023/10/19 10:59:46;;;;;;;1.15;0.60;;;9.50;99.90;;;;;;5012386;28;20494;-78
2023/10/19 11:02:19;;;;;;;0.60;0.57;;;9.60;99.90;;;;;;5011712;28;20030;-78
2023/10/19 11:04:46;;;;;;;4.05;2.05;;;9.70;99.90;;;;;;5012721;28;20054;-78
2023/10/19 11:07:19;;;;;;;0.10;0.10;;;9.70;99.90;;;;;;5012633;28;20046;-78
2023/10/19 11:09:46;;;;;;;0.30;0.30;;;9.70;99.90;;;;;;5013228;28;20050;-78
2023/10/19 11:12:13;;;;;;;0.65;0.35;;;9.70;99.90;;;;;;5013464;28;20045;-78
2023/10/19 11:14:53;;;;;;;0.93;0.73;;;9.70;99.90;;;;;;5013067;28;20486;-78
2023/10/19 11:17:19;;;;;;;1.27;0.40;;;9.60;99.90;;;;;;5013208;28;20491;-78
2023/10/19 11:19:44;;;;;;;1.02;0.55;;;9.80;99.90;;;;;;5010604;28;20072;-78
2023/10/19 11:22:11;;;;;;;4.00;0.43;;;9.80;99.90;;;;;;5012627;28;20133;-78
2023/10/19 11:24:39;;;;;;;0.10;0.10;;;9.80;99.90;;;;;;5012088;28;20125;-78
2023/10/19 11:27:07;;;;;;;0.32;0.25;;;9.80;99.90;;;;;;5014158;28;20046;-78
2023/10/19 11:29:33;;;;;;;0.63;0.55;;;9.70;99.90;;;;;;5013334;28;20046;-78
2023/10/19 11:32:02;;;;;;;1.20;0.68;;;9.70;99.90;;;;;;5013715;28;20479;-78
2023/10/19 11:34:34;;;;;;;0.77;0.30;;;9.70;99.90;;;;;;5013647;28;20400;-78
2023/10/19 11:36:59;;;;;;;0.28;0.22;;;9.70;99.90;;;;;;5014457;28;20049;-79
2023/10/19 11:39:26;;;;;;;0.10;0.10;;;9.60;99.90;;;;;;5013573;28;20057;-78
2023/10/19 11:41:52;;;;;;;0.77;0.32;;;9.70;99.90;;;;;;5013627;28;20100;-78
2023/10/19 11:44:19;;;;;;;0.30;0.30;;;9.70;99.90;;;;;;5014109;28;20468;-78
2023/10/19 11:46:45;;;;;;;0.63;0.57;;;9.60;99.90;;;;;;5014517;28;20049;-79
2023/10/19 11:49:11;;;;;;;0.10;0.10;;;9.60;99.90;;;;;;5014558;28;20041;-79
2023/10/19 11:51:37;;;;;;;0.10;0.10;;;9.60;99.90;;;;;;5014557;28;20034;-79
2023/10/19 11:54:06;;;;;;;0.20;0.13;;;9.60;99.90;;;;;;5014032;28;20041;-79
2023/10/19 11:56:32;;;;;;;0.77;0.70;;;9.60;99.90;;;;;;5012944;28;20133;-78
2023/10/19 11:58:57;;;;;;;0.15;0.15;;;9.70;99.90;;;;;;5013663;28;20057;-79
2023/10/19 12:01:25;;;;;;;1.10;0.73;;;9.70;99.90;;;;;;5012785;28;20104;-78
2023/10/19 12:03:51;;;;;;;0.28;0.13;;;9.70;99.90;;;;;;5015200;28;20041;-79
2023/10/19 12:06:20;;;;;;;0.35;0.30;;;9.70;99.90;;;;;;5013528;28;20100;-78
2023/10/19 12:08:46;;;;;;;0.90;0.55;;;9.80;99.90;;;;;;5013964;28;20038;-79
2023/10/19 12:11:22;;;;;;;0.50;0.45;;;9.90;99.90;;;;;;5015372;28;20092;-79
2023/10/19 12:13:49;;;;;;;0.32;0.25;;;9.90;99.90;;;;;;5013974;28;20609;-78
2023/10/19 12:16:16;;;;;;;6.60;0.95;;;9.90;99.90;;;;;;5012158;28;20125;-78
2023/10/19 12:18:42;;;;;;;0.05;0.05;;;9.90;99.90;;;;;;5027091;28;20252;-78
2023/10/19 12:21:11;;;;;;;0.15;0.15;;;9.90;99.90;;;;;;5013094;28;20053;-79
2023/10/19 12:23:43;;;;;;;0.10;0.10;;;9.80;99.90;;;;;;5014672;28;20054;-79
2023/10/19 12:26:12;;;;;;;0.38;0.28;;;9.70;99.90;;;;;;5013320;28;20069;-79
2023/10/19 12:28:38;;;;;;;0.65;0.32;;;9.50;99.90;;;;;;5013977;28;20044;-79
2023/10/19 12:31:10;;;;;;;1.17;0.93;;;9.60;99.90;;;;;;5015405;28;20034;-79
2023/10/19 12:33:41;;;;;;;0.10;0.10;;;9.60;99.90;;;;;;5015098;28;20124;-79
2023/10/19 12:38:51;;;;;;;0.55;0.55;;;9.50;99.90;;;;;;5015903;28;20038;-79
2023/10/19 12:41:19;;;;;;;0.05;0.05;;;9.50;99.90;;;;;;5016123;28;20046;-79
2023/10/19 12:43:46;;;;;;;0.30;0.30;;;9.50;99.90;;;;;;5016283;28;20046;-79
2023/10/19 12:46:13;;;;;;;0.05;0.05;;;9.60;99.90;;;;;;5015063;28;20057;-79
2023/10/19 12:48:48;;;;;;;2.13;1.63;;;9.50;99.90;;;;;;5015878;28;20042;-78
2023/10/19 12:51:14;;;;;;;0.15;0.15;;;9.50;99.90;;;;;;5015679;28;20054;-79
2023/10/19 12:53:40;;;;;;;0.10;0.10;;;9.50;99.90;;;;;;5016553;28;20053;-79
2023/10/19 12:56:07;;;;;;;0.08;0.08;;;9.60;99.90;;;;;;5016333;28;20058;-79
2023/10/19 12:58:33;;;;;;;0.00;0.00;;;9.60;99.90;;;;;;5015795;28;20050;-79
2023/10/19 13:00:59;;;;;;;0.20;0.17;;;9.60;99.90;;;;;;5015566;28;20046;-79
2023/10/19 13:03:31;;;;;;;1.00;0.50;;;9.50;99.90;;;;;;5015190;28;20046;-79
2023/10/19 13:05:58;;;;;;;0.45;0.40;;;9.50;99.90;;;;;;5015773;28;20486;-79
2023/10/19 13:08:27;;;;;;;0.45;0.45;;;9.50;99.90;;;;;;5014610;28;20053;-79
2023/10/19 13:10:53;;;;;;;0.40;0.40;;;9.50;99.90;;;;;;5015107;28;20480;-79
2023/10/19 13:13:18;;;;;;;0.45;0.40;;;9.40;99.90;;;;;;5016628;28;20125;-79
2023/10/19 13:15:47;;;;;;;0.15;0.15;;;9.50;99.90;;;;;;5015265;28;20432;-79
2023/10/19 13:18:15;;;;;;;0.10;0.10;;;9.50;99.90;;;;;;5014649;28;20476;-79
2023/10/19 13:20:43;;;;;;;0.80;0.50;;;9.50;99.90;;;;;;5015897;28;20050;-79
2023/10/19 13:23:15;;;;;;;0.32;0.20;;;10.30;99.90;;;;;;5015964;28;20557;-79
2023/10/19 13:25:41;;;;;;;0.55;0.30;;;9.50;99.90;;;;;;4998006;28;20479;-79
2023/10/19 13:28:11;;;;;;;0.57;0.50;;;9.50;99.90;;;;;;5014490;28;20050;-79
2023/10/19 13:30:41;;;;;;;0.20;0.20;;;10.60;99.90;;;;;;5015293;28;20116;-79